createdAt,value
2023-01-12T00:02:13.322Z,98842.78
2023-01-12T00:06:16.461Z,98844.63
2023-01-12T00:10:18.681Z,98834.19
2023-01-12T00:14:20.964Z,98829.59
2023-01-12T00:18:23.235Z,98824.75
2023-01-12T00:22:25.444Z,98824.66
2023-01-12T00:26:27.551Z,98828.72
2023-01-12T00:30:29.916Z,98814.81
2023-01-12T00:34:32.493Z,98802.84
2023-01-12T00:38:36.571Z,98803.66
2023-01-12T00:42:57.361Z,98807.56
2023-01-12T00:46:59.537Z,98801.03
2023-01-12T00:51:05.227Z,98812.94
2023-01-12T00:55:08.740Z,98814.88
2023-01-12T00:59:10.991Z,98819.97
2023-01-12T01:03:13.304Z,98835.94
2023-01-12T01:07:16.329Z,98843.19
2023-01-12T01:11:18.680Z,98846.75
2023-01-12T01:15:20.934Z,98858.25
2023-01-12T01:19:23.363Z,98874.84
2023-01-12T01:23:27.010Z,98879.09
2023-01-12T01:27:29.230Z,98879.09
2023-01-12T01:31:31.560Z,98884.06
2023-01-12T01:35:33.726Z,98879.22
2023-01-12T01:39:36.044Z,98877.47
2023-01-12T01:44:24.539Z,98869.91
2023-01-12T01:48:29.159Z,98869.19
2023-01-12T01:52:36.209Z,98873.22
2023-01-12T01:56:38.498Z,98874.81
2023-01-12T02:00:42.663Z,98862.75
2023-01-12T02:04:45.346Z,98862.75
2023-01-12T02:08:54.004Z,98853.88
2023-01-12T02:13:14.694Z,98858.94
2023-01-12T02:17:41.698Z,98861.28
2023-01-12T02:22:10.113Z,98860.47
2023-01-12T02:26:24.345Z,98861.28
2023-01-12T02:30:46.521Z,98851.00
2023-01-12T02:35:22.392Z,98856.22
2023-01-12T02:39:28.153Z,98857.69
2023-01-12T02:43:33.205Z,98849.88
2023-01-12T02:47:52.247Z,98859.19
2023-01-12T02:52:07.690Z,98857.97
2023-01-12T02:56:14.146Z,98851.78
2023-01-12T03:00:18.636Z,98841.25
2023-01-12T03:04:22.692Z,98839.50
2023-01-12T03:08:29.209Z,98840.91
2023-01-12T03:12:38.463Z,98826.72
2023-01-12T03:16:42.227Z,98840.28
2023-01-12T03:20:52.043Z,98848.44
2023-01-12T03:25:02.465Z,98840.91
2023-01-12T03:29:16.156Z,98839.28
2023-01-12T03:33:19.384Z,98846.75
2023-01-12T03:37:39.831Z,98838.69
2023-01-12T03:42:07.734Z,98851.94
2023-01-12T03:46:16.415Z,98868.47
2023-01-12T03:50:25.612Z,98868.38
2023-01-12T03:54:29.834Z,98875.41
2023-01-12T03:58:34.983Z,98871.25
2023-01-12T04:02:37.269Z,98874.25
2023-01-12T04:06:39.478Z,98870.56
2023-01-12T04:10:41.708Z,98877.34
2023-01-12T04:14:48.069Z,98875.50
2023-01-12T04:18:50.414Z,98874.00
2023-01-12T04:22:52.603Z,98863.19
2023-01-12T04:26:54.896Z,98868.97
2023-01-12T04:30:57.085Z,98870.88
2023-01-12T04:34:59.255Z,98871.44
2023-01-12T04:39:01.639Z,98864.69
2023-01-12T04:43:11.071Z,98864.47
2023-01-12T04:47:13.368Z,98863.03
2023-01-12T04:51:15.765Z,98867.78
2023-01-12T04:55:18.089Z,98881.25
2023-01-12T04:59:20.341Z,98879.88
2023-01-12T05:03:22.606Z,98885.41
2023-01-12T05:07:24.943Z,98893.09
2023-01-12T05:11:28.653Z,98904.13
2023-01-12T05:15:30.839Z,98907.91
2023-01-12T05:19:33.080Z,98910.25
2023-01-12T05:23:35.502Z,98904.25
2023-01-12T05:27:37.795Z,98914.50
2023-01-12T05:31:40.445Z,98917.03
2023-01-12T05:35:42.651Z,98912.88
2023-01-12T05:39:44.882Z,98921.84
2023-01-12T05:43:53.210Z,98899.88
2023-01-12T05:48:02.498Z,98908.03
2023-01-12T05:52:05.119Z,98911.25
2023-01-12T05:56:10.549Z,98934.00
2023-01-12T06:00:13.376Z,98948.69
2023-01-12T06:04:15.662Z,98940.91
2023-01-12T06:08:17.959Z,98949.34
2023-01-12T06:12:38.781Z,98956.47
2023-01-12T06:16:43.030Z,98960.44
2023-01-12T06:20:45.355Z,98956.41
2023-01-12T06:24:49.315Z,98972.16
2023-01-12T06:28:51.571Z,98977.94
2023-01-12T06:32:53.881Z,98983.13
2023-01-12T06:36:56.074Z,98987.78
2023-01-12T06:41:30.002Z,99002.47
2023-01-12T06:45:32.276Z,99015.91
2023-01-12T06:49:34.470Z,99034.25
2023-01-12T06:53:36.796Z,99035.94
2023-01-12T06:57:39.056Z,99043.84
2023-01-12T07:01:41.723Z,99054.81
2023-01-12T07:05:44.242Z,99052.63
2023-01-12T07:09:46.653Z,99038.63
2023-01-12T07:13:48.850Z,99025.94
2023-01-12T07:17:56.169Z,99032.84
2023-01-12T07:21:58.392Z,99024.56
2023-01-12T07:26:00.985Z,99010.03
2023-01-12T07:30:04.660Z,99003.28
2023-01-12T07:34:06.905Z,98985.03
2023-01-12T07:38:09.983Z,98990.59
2023-01-12T07:42:24.478Z,98996.69
2023-01-12T07:46:27.518Z,98992.34
2023-01-12T07:50:29.924Z,98997.66
2023-01-12T07:54:33.878Z,99011.31
2023-01-12T07:58:37.524Z,99031.00
2023-01-12T08:02:39.974Z,99020.63
2023-01-12T08:06:42.643Z,99024.88
2023-01-12T08:10:47.652Z,99044.88
2023-01-12T08:14:49.941Z,99060.78
2023-01-12T08:19:01.566Z,99067.47
2023-01-12T08:23:28.308Z,99065.75
2023-01-12T08:27:33.585Z,99060.53
2023-01-12T08:31:36.478Z,99060.28
2023-01-12T08:35:39.325Z,99069.25
2023-01-12T08:39:42.138Z,99073.53
2023-01-12T08:44:02.446Z,99071.41
2023-01-12T08:48:05.663Z,99073.94
2023-01-12T08:52:07.819Z,99083.22
2023-01-12T08:56:10.296Z,99081.19
2023-01-12T09:00:12.954Z,99089.47
2023-01-12T09:04:15.281Z,99075.59
2023-01-12T09:08:17.712Z,99080.84
2023-01-12T09:12:20.093Z,99087.19
2023-01-12T09:16:23.147Z,99080.63
2023-01-12T09:20:25.392Z,99084.56
2023-01-12T09:24:27.788Z,99101.59
2023-01-12T09:28:30.151Z,99119.84
2023-01-12T09:32:36.766Z,99103.03
2023-01-12T09:36:40.456Z,99102.38
2023-01-12T09:40:43.952Z,99115.44
2023-01-12T09:45:10.080Z,99134.25
2023-01-12T09:49:13.742Z,99128.22
2023-01-12T09:53:21.464Z,99130.72
2023-01-12T09:57:42.424Z,99138.28
2023-01-12T10:01:45.977Z,99135.41
2023-01-12T10:05:58.118Z,99126.31
2023-01-12T10:10:00.528Z,99124.38
2023-01-12T10:14:24.193Z,99119.44
2023-01-12T10:18:47.450Z,99099.03
2023-01-12T10:22:49.847Z,99102.03
2023-01-12T10:27:00.593Z,99098.56
2023-01-12T10:31:03.855Z,99104.47
2023-01-12T10:35:14.425Z,99109.88
2023-01-12T10:39:31.938Z,99098.31
2023-01-12T10:43:36.924Z,99094.38
2023-01-12T10:47:40.717Z,99086.13
2023-01-12T10:51:58.029Z,99080.47
2023-01-12T10:56:03.056Z,99074.63
2023-01-12T11:00:05.934Z,99073.34
2023-01-12T11:04:15.261Z,99069.06
2023-01-12T11:08:27.200Z,99073.72
2023-01-12T11:12:32.277Z,99072.19
2023-01-12T11:16:50.482Z,99074.41
2023-01-12T11:21:07.908Z,99069.13
2023-01-12T11:25:17.768Z,99057.41
2023-01-12T11:29:35.009Z,99049.13
2023-01-12T11:33:44.407Z,99048.31
2023-01-12T11:37:53.317Z,99045.66
2023-01-12T11:42:17.503Z,99043.31
2023-01-12T11:46:42.660Z,99039.78
2023-01-12T11:50:47.582Z,99030.75
2023-01-12T11:54:49.974Z,99040.38
2023-01-12T11:59:07.457Z,99053.78
2023-01-12T12:03:49.036Z,99061.06
2023-01-12T12:08:06.840Z,99052.28
2023-01-12T12:12:23.439Z,99041.63
2023-01-12T12:16:39.704Z,99031.44
2023-01-12T12:21:12.459Z,99027.19
2023-01-12T12:25:27.063Z,99021.88
2023-01-12T12:30:19.374Z,99002.41
2023-01-12T12:34:55.493Z,98990.38
2023-01-12T12:39:12.888Z,98977.84
2023-01-12T12:43:41.864Z,98954.88
2023-01-12T12:48:02.161Z,98955.41
2023-01-12T12:52:05.654Z,98957.25
2023-01-12T12:56:11.503Z,98963.44
2023-01-12T13:00:43.606Z,98970.91
2023-01-12T13:04:46.463Z,98979.75
2023-01-12T13:08:51.252Z,98988.28
2023-01-12T13:12:59.048Z,98994.19
2023-01-12T13:17:02.199Z,98992.34
2023-01-12T13:21:05.666Z,99000.59
2023-01-12T13:25:16.718Z,98985.66
2023-01-12T13:29:28.123Z,98988.84
2023-01-12T13:33:30.373Z,99000.06
2023-01-12T13:37:52.440Z,99009.44
2023-01-12T13:42:14.212Z,99015.59
2023-01-12T13:46:20.527Z,99000.56
2023-01-12T13:50:25.553Z,98992.03
2023-01-12T13:54:29.843Z,98995.25
2023-01-12T13:58:41.344Z,98988.03
2023-01-12T14:02:43.775Z,98995.47
2023-01-12T14:07:30.741Z,98994.41
2023-01-12T14:11:38.914Z,99001.06
2023-01-12T14:16:03.140Z,98996.25
2023-01-12T14:20:16.448Z,98996.25
2023-01-12T14:24:23.683Z,99008.03
2023-01-12T14:28:26.192Z,99013.09
2023-01-12T14:32:29.873Z,99026.69
2023-01-12T14:36:42.603Z,99039.78
2023-01-12T14:40:58.349Z,99042.72
2023-01-12T14:45:18.966Z,99038.13
2023-01-12T14:49:28.789Z,99049.91
2023-01-12T14:53:39.329Z,99044.31
2023-01-12T14:57:42.475Z,99045.38
2023-01-12T15:01:44.768Z,99029.56
2023-01-12T15:05:52.512Z,99029.25
2023-01-12T15:09:58.153Z,99046.25
2023-01-12T15:14:02.025Z,99032.84
2023-01-12T15:18:22.661Z,99032.22
2023-01-12T15:22:47.449Z,99043.59
2023-01-12T15:27:01.910Z,99043.22
2023-01-12T15:31:28.234Z,99052.72
2023-01-12T15:35:30.717Z,99055.84
2023-01-12T15:39:32.904Z,99056.19
2023-01-12T15:43:35.060Z,99060.56
2023-01-12T15:47:37.236Z,99072.38
2023-01-12T15:51:40.404Z,99070.53
2023-01-12T15:55:42.948Z,99054.31
2023-01-12T15:59:45.229Z,99062.22
2023-01-12T16:04:15.044Z,99067.16
2023-01-12T16:08:09.592Z,99068.81
2023-01-12T16:12:11.770Z,99077.19
2023-01-12T16:16:16.682Z,99081.53
2023-01-12T16:20:20.359Z,99077.47
2023-01-12T16:24:26.699Z,99083.91
2023-01-12T16:28:29.250Z,99084.91
2023-01-12T16:32:31.535Z,99090.28
2023-01-12T16:36:33.944Z,99073.59
2023-01-12T16:40:43.474Z,99084.97
2023-01-12T16:44:45.622Z,99085.94
2023-01-12T16:48:48.312Z,99090.81
2023-01-12T16:52:50.625Z,99084.50
2023-01-12T16:56:54.070Z,99091.47
2023-01-12T17:00:58.685Z,99087.88
2023-01-12T17:05:02.725Z,99097.22
2023-01-12T17:09:06.624Z,99095.28
2023-01-12T17:13:08.981Z,99092.97
2023-01-12T17:17:12.594Z,99087.53
2023-01-12T17:21:15.303Z,99087.28
2023-01-12T17:25:17.741Z,99084.56
2023-01-12T17:29:20.851Z,99097.38
2023-01-12T17:33:23.365Z,99085.16
2023-01-12T17:37:26.133Z,99076.19
2023-01-12T17:41:46.843Z,99086.78
2023-01-12T17:45:49.053Z,99084.13
2023-01-12T17:49:52.758Z,99085.97
2023-01-12T17:54:00.115Z,99101.16
2023-01-12T17:58:03.189Z,99105.31
2023-01-12T18:02:05.878Z,99093.22
2023-01-12T18:06:12.015Z,99094.59
2023-01-12T18:10:17.691Z,99096.59
2023-01-12T18:14:21.681Z,99106.28
2023-01-12T18:18:23.946Z,99109.59
2023-01-12T18:22:26.431Z,99116.47
2023-01-12T18:26:31.588Z,99121.69
2023-01-12T18:30:33.893Z,99116.88
2023-01-12T18:34:41.990Z,99117.44
2023-01-12T18:38:46.025Z,99119.16
2023-01-12T18:42:53.514Z,99115.09
2023-01-12T18:47:16.680Z,99118.47
2023-01-12T18:51:37.400Z,99112.59
2023-01-12T18:55:41.539Z,99117.41
2023-01-12T18:59:44.132Z,99115.88
2023-01-12T19:03:46.515Z,99125.09
2023-01-12T19:07:51.642Z,99127.03
2023-01-12T19:11:53.753Z,99127.84
2023-01-12T19:16:18.242Z,99128.78
2023-01-12T19:20:21.364Z,99130.06
2023-01-12T19:24:42.614Z,99139.81
2023-01-12T19:28:44.741Z,99146.31
2023-01-12T19:32:47.042Z,99136.19
2023-01-12T19:36:49.915Z,99149.38
2023-01-12T19:40:54.507Z,99162.34
2023-01-12T19:44:56.849Z,99169.63
2023-01-12T19:48:58.920Z,99155.63
2023-01-12T19:53:01.164Z,99164.38
2023-01-12T19:57:03.680Z,99174.91
2023-01-12T20:01:05.901Z,99157.06
2023-01-12T20:05:13.173Z,99149.97
2023-01-12T20:09:15.812Z,99141.06
2023-01-12T20:13:18.374Z,99134.78
2023-01-12T20:17:20.829Z,99130.94
2023-01-12T20:21:23.406Z,99131.16
2023-01-12T20:25:28.107Z,99135.22
2023-01-12T20:29:30.380Z,99144.16
2023-01-12T20:33:32.660Z,99141.72
2023-01-12T20:37:35.019Z,99159.56
2023-01-12T20:41:39.406Z,99158.94
2023-01-12T20:45:43.232Z,99162.81
2023-01-12T20:49:47.243Z,99155.50
2023-01-12T20:53:49.438Z,99154.69
2023-01-12T20:57:51.639Z,99150.25
2023-01-12T21:01:53.986Z,99151.47
2023-01-12T21:05:56.330Z,99145.78
2023-01-12T21:09:58.524Z,99144.19
2023-01-12T21:14:00.693Z,99139.28
2023-01-12T21:18:03.076Z,99126.75
2023-01-12T21:22:05.482Z,99127.91
2023-01-12T21:26:08.384Z,99121.44
2023-01-12T21:30:12.596Z,99116.41
2023-01-12T21:34:15.285Z,99122.81
2023-01-12T21:38:18.205Z,99126.34
2023-01-12T21:42:38.817Z,99124.25
2023-01-12T21:46:40.898Z,99134.31
2023-01-12T21:50:43.688Z,99145.63
2023-01-12T21:54:45.979Z,99156.59
2023-01-12T21:58:48.358Z,99163.34
2023-01-12T22:02:53.742Z,99149.25
2023-01-12T22:06:56.350Z,99174.09
2023-01-12T22:11:07.557Z,99179.63
2023-01-12T22:15:10.081Z,99174.19
2023-01-12T22:19:12.323Z,99177.13
2023-01-12T22:23:14.520Z,99160.91
2023-01-12T22:27:16.811Z,99160.38
2023-01-12T22:31:21.423Z,99166.63
2023-01-12T22:35:23.612Z,99165.94
2023-01-12T22:39:25.688Z,99167.75
2023-01-12T22:43:27.868Z,99157.25
2023-01-12T22:47:30.499Z,99157.84
2023-01-12T22:51:32.692Z,99153.63
2023-01-12T22:55:34.842Z,99155.88
2023-01-12T22:59:37.151Z,99145.78
2023-01-12T23:03:39.283Z,99149.16
2023-01-12T23:07:41.370Z,99153.31
2023-01-12T23:11:43.401Z,99142.59
2023-01-12T23:15:56.847Z,99147.03
2023-01-12T23:19:59.549Z,99136.13
2023-01-12T23:24:01.618Z,99135.41
2023-01-12T23:28:04.816Z,99133.69
2023-01-12T23:32:06.919Z,99121.16
2023-01-12T23:36:12.700Z,99113.69
2023-01-12T23:40:14.977Z,99097.31
2023-01-12T23:44:17.669Z,99107.28
2023-01-12T23:48:19.842Z,99097.31
2023-01-12T23:52:21.911Z,99093.84
2023-01-12T23:56:24.085Z,99082.75
